createdAt,value
2023-05-08T00:02:22.830Z,14.40
2023-05-08T00:04:49.560Z,14.40
2023-05-08T00:07:16.162Z,14.40
2023-05-08T00:09:42.727Z,14.40
2023-05-08T00:12:09.333Z,14.40
2023-05-08T00:14:36.225Z,14.40
2023-05-08T00:17:03.144Z,14.40
2023-05-08T00:19:29.910Z,14.40
2023-05-08T00:21:56.529Z,14.40
2023-05-08T00:24:23.231Z,14.40
2023-05-08T00:26:49.986Z,14.40
2023-05-08T00:29:16.568Z,14.40
2023-05-08T00:31:43.167Z,14.40
2023-05-08T00:34:09.845Z,14.50
2023-05-08T00:36:36.473Z,14.50
2023-05-08T00:39:03.416Z,14.40
2023-05-08T00:41:30.080Z,14.50
2023-05-08T00:43:56.640Z,14.50
2023-05-08T00:46:23.671Z,14.40
2023-05-08T00:48:50.672Z,14.40
2023-05-08T00:51:17.732Z,14.40
2023-05-08T00:53:45.460Z,14.40
2023-05-08T00:56:14.292Z,14.40
2023-05-08T00:58:42.004Z,14.40
2023-05-08T01:01:08.994Z,14.40
2023-05-08T01:03:36.732Z,14.40
2023-05-08T01:06:04.373Z,14.30
2023-05-08T01:08:31.988Z,14.30
2023-05-08T01:11:36.086Z,14.30
2023-05-08T01:14:24.975Z,14.30
2023-05-08T01:17:06.672Z,14.30
2023-05-08T01:19:42.143Z,14.30
2023-05-08T01:22:42.180Z,14.30
2023-05-08T01:25:29.136Z,14.30
2023-05-08T01:28:20.751Z,14.30
2023-05-08T01:31:12.258Z,14.30
2023-05-08T01:33:59.850Z,14.20
2023-05-08T01:36:33.257Z,14.20
2023-05-08T01:39:18.716Z,14.20
2023-05-08T01:42:00.681Z,14.20
2023-05-08T01:44:41.384Z,14.20
2023-05-08T01:47:11.698Z,14.20
2023-05-08T01:49:52.942Z,14.20
2023-05-08T01:52:30.416Z,14.20
2023-05-08T01:55:01.638Z,14.20
2023-05-08T01:57:31.102Z,14.20
2023-05-08T02:00:01.543Z,14.20
2023-05-08T02:02:32.006Z,14.10
2023-05-08T02:05:00.849Z,14.10
2023-05-08T02:07:28.361Z,14.20
2023-05-08T02:09:56.528Z,14.10
2023-05-08T02:12:25.219Z,14.20
2023-05-08T02:14:53.408Z,14.10
2023-05-08T02:17:21.639Z,14.10
2023-05-08T02:19:50.640Z,14.00
2023-05-08T02:22:19.600Z,13.90
2023-05-08T02:24:46.506Z,13.90
2023-05-08T02:27:14.697Z,13.90
2023-05-08T02:29:42.230Z,13.90
2023-05-08T02:32:09.783Z,13.80
2023-05-08T02:34:37.166Z,13.70
2023-05-08T02:37:06.035Z,13.70
2023-05-08T02:39:35.524Z,13.60
2023-05-08T02:42:02.312Z,13.60
2023-05-08T02:44:29.014Z,13.50
2023-05-08T02:47:25.839Z,13.50
2023-05-08T02:50:00.282Z,13.50
2023-05-08T02:52:50.791Z,13.50
2023-05-08T02:55:30.949Z,13.40
2023-05-08T02:58:04.049Z,13.40
2023-05-08T03:00:35.216Z,13.40
2023-05-08T03:03:13.471Z,13.40
2023-05-08T03:05:47.149Z,13.40
2023-05-08T03:08:20.752Z,13.30
2023-05-08T03:10:51.428Z,13.30
2023-05-08T03:13:20.722Z,13.30
2023-05-08T03:15:52.370Z,13.30
2023-05-08T03:18:21.963Z,13.30
2023-05-08T03:20:52.578Z,13.30
2023-05-08T03:23:21.951Z,13.20
2023-05-08T03:25:48.551Z,13.20
2023-05-08T03:28:15.917Z,13.20
2023-05-08T03:30:43.260Z,13.10
2023-05-08T03:33:12.153Z,13.10
2023-05-08T03:35:39.806Z,13.10
2023-05-08T03:38:08.233Z,13.10
2023-05-08T03:40:38.882Z,13.10
2023-05-08T03:43:09.591Z,13.10
2023-05-08T03:45:37.705Z,13.10
2023-05-08T03:48:06.572Z,13.10
2023-05-08T03:50:35.610Z,13.00
2023-05-08T03:53:02.636Z,13.00
2023-05-08T03:55:31.008Z,13.00
2023-05-08T03:58:24.487Z,13.00
2023-05-08T04:01:16.521Z,13.10
2023-05-08T04:03:57.414Z,13.00
2023-05-08T04:06:48.679Z,13.00
2023-05-08T04:09:35.809Z,13.00
2023-05-08T04:12:14.893Z,13.00
2023-05-08T04:14:50.267Z,13.00
2023-05-08T04:17:36.127Z,13.00
2023-05-08T04:20:08.869Z,13.00
2023-05-08T04:22:38.608Z,12.90
2023-05-08T04:25:06.882Z,12.90
2023-05-08T04:27:35.335Z,12.90
2023-05-08T04:30:02.564Z,12.90
2023-05-08T04:32:31.312Z,12.90
2023-05-08T04:34:59.310Z,12.90
2023-05-08T04:37:27.331Z,12.90
2023-05-08T04:39:54.290Z,12.90
2023-05-08T04:42:21.330Z,12.80
2023-05-08T04:44:48.104Z,12.80
2023-05-08T04:47:14.824Z,12.80
2023-05-08T04:49:41.520Z,12.80
2023-05-08T04:52:08.388Z,12.80
2023-05-08T04:54:35.090Z,12.90
2023-05-08T04:57:01.670Z,12.80
2023-05-08T04:59:29.436Z,12.90
2023-05-08T05:01:57.013Z,12.90
2023-05-08T05:04:23.735Z,12.90
2023-05-08T05:06:50.472Z,13.00
2023-05-08T05:09:17.271Z,13.00
2023-05-08T05:11:43.881Z,13.00
2023-05-08T05:14:10.698Z,13.10
2023-05-08T05:16:37.533Z,13.10
2023-05-08T05:19:04.784Z,13.20
2023-05-08T05:21:31.827Z,13.20
2023-05-08T05:23:58.552Z,13.30
2023-05-08T05:26:25.141Z,13.30
2023-05-08T05:28:51.740Z,13.40
2023-05-08T05:31:18.741Z,13.50
2023-05-08T05:33:46.528Z,13.50
2023-05-08T05:36:13.286Z,13.60
2023-05-08T05:38:39.926Z,13.60
2023-05-08T05:41:06.646Z,13.70
2023-05-08T05:43:33.369Z,13.70
2023-05-08T05:46:07.337Z,13.80
2023-05-08T05:48:34.338Z,13.90
2023-05-08T05:51:01.192Z,14.00
2023-05-08T05:53:28.057Z,14.00
2023-05-08T05:55:54.666Z,14.10
2023-05-08T05:58:21.335Z,14.10
2023-05-08T06:00:48.315Z,14.20
2023-05-08T06:03:15.108Z,14.20
2023-05-08T06:05:41.847Z,14.30
2023-05-08T06:08:08.599Z,14.30
2023-05-08T06:10:36.367Z,14.40
2023-05-08T06:13:03.050Z,14.40
2023-05-08T06:15:29.732Z,14.50
2023-05-08T06:17:56.514Z,14.60
2023-05-08T06:20:24.397Z,14.70
2023-05-08T06:22:52.880Z,14.70
2023-05-08T06:25:19.780Z,14.80
2023-05-08T06:27:46.427Z,14.80
2023-05-08T06:30:13.144Z,14.90
2023-05-08T06:32:39.851Z,15.00
2023-05-08T06:35:07.144Z,15.10
2023-05-08T06:37:33.767Z,15.10
2023-05-08T06:40:11.707Z,15.20
2023-05-08T06:42:40.190Z,15.20
2023-05-08T06:45:08.079Z,15.20
2023-05-08T06:47:34.749Z,15.30
2023-05-08T06:50:01.539Z,15.40
2023-05-08T06:52:28.220Z,15.50
2023-05-08T06:54:54.873Z,15.60
2023-05-08T06:57:21.594Z,15.70
2023-05-08T06:59:48.257Z,15.70
2023-05-08T07:02:16.246Z,15.80
2023-05-08T07:04:44.472Z,15.80
2023-05-08T07:07:11.656Z,15.90
2023-05-08T07:09:38.279Z,15.90
2023-05-08T07:12:05.317Z,16.00
2023-05-08T07:14:31.973Z,16.00
2023-05-08T07:16:58.841Z,16.00
2023-05-08T07:19:25.596Z,16.10
2023-05-08T07:21:52.478Z,16.10
2023-05-08T07:24:19.106Z,16.10
2023-05-08T07:26:45.671Z,16.10
2023-05-08T07:29:12.777Z,16.10
2023-05-08T07:31:40.766Z,16.20
2023-05-08T07:34:07.560Z,16.20
2023-05-08T07:36:34.210Z,16.30
2023-05-08T07:39:00.776Z,16.30
2023-05-08T07:41:27.505Z,16.40
2023-05-08T07:43:54.135Z,16.40
2023-05-08T07:46:21.754Z,16.40
2023-05-08T07:48:48.841Z,16.50
2023-05-08T07:51:15.739Z,16.50
2023-05-08T07:53:42.461Z,16.60
2023-05-08T07:56:09.051Z,16.60
2023-05-08T07:58:35.706Z,16.70
2023-05-08T08:01:02.287Z,16.70
2023-05-08T08:03:29.056Z,16.80
2023-05-08T08:05:55.779Z,16.80
2023-05-08T08:08:22.386Z,16.90
2023-05-08T08:10:50.121Z,16.90
2023-05-08T08:13:17.543Z,16.90
2023-05-08T08:15:44.432Z,17.00
2023-05-08T08:18:11.167Z,17.00
2023-05-08T08:20:37.995Z,17.00
2023-05-08T08:23:06.330Z,17.00
2023-05-08T08:25:32.961Z,17.00
2023-05-08T08:27:59.565Z,17.00
2023-05-08T08:30:26.164Z,17.00
2023-05-08T08:32:52.924Z,17.00
2023-05-08T08:35:19.687Z,17.00
2023-05-08T08:37:46.340Z,17.10
2023-05-08T08:40:13.079Z,17.10
2023-05-08T08:42:40.053Z,17.20
2023-05-08T08:45:07.288Z,17.20
2023-05-08T08:47:37.905Z,17.30
2023-05-08T08:50:05.348Z,17.30
2023-05-08T08:52:49.048Z,17.40
2023-05-08T08:55:18.020Z,17.40
2023-05-08T08:57:53.397Z,17.50
2023-05-08T09:00:22.615Z,17.60
2023-05-08T09:02:49.957Z,17.60
2023-05-08T09:05:17.851Z,17.70
2023-05-08T09:07:44.696Z,17.80
2023-05-08T09:10:15.377Z,17.90
2023-05-08T09:12:42.516Z,17.90
2023-05-08T09:15:09.441Z,17.90
2023-05-08T09:17:36.339Z,17.90
2023-05-08T09:20:03.720Z,18.00
2023-05-08T09:22:31.236Z,18.00
2023-05-08T09:24:59.726Z,18.10
2023-05-08T09:27:28.320Z,18.10
2023-05-08T09:30:06.710Z,18.10
2023-05-08T09:32:35.094Z,18.20
2023-05-08T09:35:02.620Z,18.30
2023-05-08T09:37:29.441Z,18.50
2023-05-08T09:40:20.699Z,18.70
2023-05-08T09:42:48.627Z,18.90
2023-05-08T09:45:32.382Z,19.00
2023-05-08T09:47:59.466Z,19.00
2023-05-08T09:50:27.516Z,18.90
2023-05-08T09:52:54.199Z,18.90
2023-05-08T09:55:21.026Z,18.90
2023-05-08T09:57:55.933Z,19.00
2023-05-08T10:00:22.889Z,19.00
2023-05-08T10:03:00.976Z,19.10
2023-05-08T10:05:32.945Z,19.10
2023-05-08T10:08:20.539Z,19.20
2023-05-08T10:10:47.730Z,19.30
2023-05-08T10:13:14.500Z,19.40
2023-05-08T10:15:43.004Z,19.50
2023-05-08T10:18:10.935Z,19.60
2023-05-08T10:20:44.237Z,19.60
2023-05-08T10:23:15.366Z,19.60
2023-05-08T10:25:54.183Z,19.60
2023-05-08T10:28:27.103Z,19.60
2023-05-08T10:30:59.465Z,19.60
2023-05-08T10:33:34.056Z,19.50
2023-05-08T10:36:01.425Z,19.60
2023-05-08T10:38:28.289Z,19.60
2023-05-08T10:40:58.229Z,19.70
2023-05-08T10:43:25.664Z,19.70
2023-05-08T10:45:55.478Z,19.70
2023-05-08T10:48:35.790Z,19.70
2023-05-08T10:51:44.123Z,19.80
2023-05-08T10:54:47.097Z,19.80
2023-05-08T10:57:14.968Z,19.80
2023-05-08T10:59:46.834Z,19.80
2023-05-08T11:02:15.027Z,19.80
2023-05-08T11:04:42.018Z,19.80
2023-05-08T11:07:08.710Z,19.70
2023-05-08T11:10:06.095Z,19.80
2023-05-08T11:12:33.917Z,19.70
2023-05-08T11:15:06.250Z,19.70
2023-05-08T11:17:33.928Z,19.70
2023-05-08T11:20:05.727Z,19.70
2023-05-08T11:22:33.612Z,19.70
2023-05-08T11:25:07.389Z,19.70
2023-05-08T11:27:54.272Z,19.70
2023-05-08T11:30:36.080Z,19.70
2023-05-08T11:33:05.758Z,19.80
2023-05-08T11:35:49.473Z,19.80
2023-05-08T11:38:36.738Z,19.90
2023-05-08T11:41:04.659Z,20.00
2023-05-08T11:43:36.199Z,20.10
2023-05-08T11:46:04.960Z,20.10
2023-05-08T11:48:36.041Z,20.10
2023-05-08T11:51:03.832Z,20.10
2023-05-08T11:53:31.347Z,20.10
2023-05-08T11:55:58.970Z,20.10
2023-05-08T11:58:26.201Z,20.20
2023-05-08T12:00:53.189Z,20.20
2023-05-08T12:03:21.397Z,20.20
2023-05-08T12:05:49.396Z,20.20
2023-05-08T12:08:17.240Z,20.30
2023-05-08T12:10:47.022Z,20.30
2023-05-08T12:13:31.835Z,20.40
2023-05-08T12:16:00.993Z,20.50
2023-05-08T12:18:30.338Z,20.70
2023-05-08T12:20:59.239Z,20.90
2023-05-08T12:23:26.915Z,21.00
2023-05-08T12:25:55.313Z,21.10
2023-05-08T12:28:22.708Z,21.10
2023-05-08T12:30:50.100Z,21.10
2023-05-08T12:33:18.408Z,21.10
2023-05-08T12:35:45.176Z,21.10
2023-05-08T12:38:12.074Z,21.10
2023-05-08T12:40:44.494Z,21.10
2023-05-08T12:43:11.722Z,21.10
2023-05-08T12:45:40.783Z,21.10
2023-05-08T12:48:09.511Z,21.20
2023-05-08T12:50:41.348Z,21.30
2023-05-08T12:53:16.114Z,21.30
2023-05-08T12:55:57.270Z,21.30
2023-05-08T12:58:26.243Z,21.30
2023-05-08T13:00:54.655Z,21.40
2023-05-08T13:03:26.819Z,21.60
2023-05-08T13:05:55.879Z,21.70
2023-05-08T13:08:34.091Z,21.80
2023-05-08T13:11:02.717Z,21.80
2023-05-08T13:13:34.647Z,21.90
2023-05-08T13:16:06.443Z,21.90
2023-05-08T13:18:33.788Z,21.90
2023-05-08T13:21:02.061Z,22.00
2023-05-08T13:23:28.954Z,22.00
2023-05-08T13:25:56.116Z,22.00
2023-05-08T13:28:22.835Z,22.00
2023-05-08T13:30:49.490Z,22.00
2023-05-08T13:33:16.077Z,22.00
2023-05-08T13:35:42.761Z,22.00
2023-05-08T13:38:09.382Z,21.90
2023-05-08T13:40:36.085Z,21.90
2023-05-08T13:43:02.643Z,21.90
2023-05-08T13:45:29.368Z,21.90
2023-05-08T13:47:56.053Z,21.80
2023-05-08T13:50:22.925Z,21.80
2023-05-08T13:52:52.215Z,21.80
2023-05-08T13:55:22.179Z,21.80
2023-05-08T13:57:48.910Z,21.80
2023-05-08T14:00:15.898Z,21.90
2023-05-08T14:02:42.539Z,21.90
2023-05-08T14:05:09.500Z,22.00
2023-05-08T14:07:36.274Z,22.20
2023-05-08T14:10:03.437Z,22.40
2023-05-08T14:12:30.250Z,22.60
2023-05-08T14:14:56.941Z,22.80
2023-05-08T14:17:23.757Z,22.80
2023-05-08T14:19:50.503Z,22.80
2023-05-08T14:22:17.173Z,22.80
2023-05-08T14:24:44.337Z,22.80
2023-05-08T14:27:11.141Z,22.80
2023-05-08T14:29:37.814Z,22.80
2023-05-08T14:32:04.877Z,22.80
2023-05-08T14:34:31.503Z,22.80
2023-05-08T14:36:58.118Z,22.80
2023-05-08T14:39:24.756Z,22.80
2023-05-08T14:42:14.238Z,22.80
2023-05-08T14:44:38.268Z,22.80
2023-05-08T14:47:05.060Z,22.80
2023-05-08T14:49:37.966Z,22.80
2023-05-08T14:52:06.677Z,22.80
2023-05-08T14:54:33.851Z,22.90
2023-05-08T14:57:00.620Z,23.00
2023-05-08T14:59:27.248Z,23.10
2023-05-08T15:01:53.970Z,23.20
2023-05-08T15:04:20.887Z,23.20
2023-05-08T15:06:47.636Z,23.30
2023-05-08T15:09:16.289Z,23.20
2023-05-08T15:11:43.015Z,23.30
2023-05-08T15:14:09.980Z,23.30
2023-05-08T15:16:36.724Z,23.20
2023-05-08T15:19:03.433Z,23.10
2023-05-08T15:21:30.081Z,23.00
2023-05-08T15:23:56.683Z,23.00
2023-05-08T15:26:23.444Z,23.00
2023-05-08T15:28:50.846Z,22.90
2023-05-08T15:31:18.178Z,22.90
2023-05-08T15:33:45.200Z,22.90
2023-05-08T15:36:13.574Z,22.80
2023-05-08T15:38:40.981Z,22.80
2023-05-08T15:41:07.744Z,22.80
2023-05-08T15:43:34.381Z,22.70
2023-05-08T15:46:01.086Z,22.60
2023-05-08T15:48:27.811Z,22.60
2023-05-08T15:50:54.471Z,22.50
2023-05-08T15:53:21.124Z,22.50
2023-05-08T15:55:47.846Z,22.40
2023-05-08T15:58:14.417Z,22.40
2023-05-08T16:00:45.139Z,22.30
2023-05-08T16:03:12.477Z,22.30
2023-05-08T16:05:39.492Z,22.10
2023-05-08T16:08:06.274Z,22.10
2023-05-08T16:10:32.878Z,22.10
2023-05-08T16:12:59.551Z,22.00
2023-05-08T16:15:26.213Z,22.00
2023-05-08T16:17:52.920Z,22.00
2023-05-08T16:20:19.892Z,21.90
2023-05-08T16:22:46.542Z,21.90
2023-05-08T16:25:13.356Z,21.80
2023-05-08T16:27:40.268Z,21.80
2023-05-08T16:30:07.562Z,21.70
2023-05-08T16:32:34.212Z,21.70
2023-05-08T16:35:00.908Z,21.60
2023-05-08T16:37:27.547Z,21.60
2023-05-08T16:39:54.253Z,21.50
2023-05-08T16:42:20.903Z,21.50
2023-05-08T16:44:47.619Z,21.40
2023-05-08T16:47:14.497Z,21.30
2023-05-08T16:49:41.235Z,21.20
2023-05-08T16:52:08.269Z,21.20
2023-05-08T16:54:34.947Z,21.20
2023-05-08T16:57:01.694Z,21.10
2023-05-08T16:59:28.431Z,21.20
2023-05-08T17:01:55.377Z,21.20
2023-05-08T17:04:21.993Z,21.20
2023-05-08T17:06:48.653Z,21.20
2023-05-08T17:09:16.518Z,21.20
2023-05-08T17:11:43.161Z,21.10
2023-05-08T17:14:09.758Z,21.10
2023-05-08T17:16:36.513Z,21.10
2023-05-08T17:19:03.376Z,21.10
2023-05-08T17:21:31.972Z,21.10
2023-05-08T17:24:01.877Z,21.10
2023-05-08T17:26:32.634Z,21.10
2023-05-08T17:28:59.509Z,21.00
2023-05-08T17:31:26.123Z,20.90
2023-05-08T17:33:52.723Z,20.90
2023-05-08T17:36:19.383Z,20.80
2023-05-08T17:38:47.201Z,20.70
2023-05-08T17:41:14.465Z,20.50
2023-05-08T17:43:41.161Z,20.50
2023-05-08T17:46:07.986Z,20.40
2023-05-08T17:48:35.198Z,20.40
2023-05-08T17:51:03.041Z,20.30
2023-05-08T17:53:33.321Z,20.30
2023-05-08T17:55:59.932Z,20.30
2023-05-08T17:58:26.678Z,20.20
2023-05-08T18:00:53.991Z,20.20
2023-05-08T18:03:21.332Z,20.10
2023-05-08T18:05:47.999Z,20.10
2023-05-08T18:08:14.607Z,20.10
2023-05-08T18:10:41.287Z,20.00
2023-05-08T18:13:08.070Z,20.00
2023-05-08T18:15:36.096Z,19.90
2023-05-08T18:18:02.965Z,19.90
2023-05-08T18:20:29.634Z,19.80
2023-05-08T18:22:56.295Z,19.80
2023-05-08T18:25:22.867Z,19.70
2023-05-08T18:27:50.528Z,19.70
2023-05-08T18:30:17.366Z,19.60
2023-05-08T18:32:44.111Z,19.60
2023-05-08T18:35:10.852Z,19.50
2023-05-08T18:37:37.470Z,19.50
2023-05-08T18:40:05.086Z,19.40
2023-05-08T18:42:31.737Z,19.40
2023-05-08T18:45:00.231Z,19.30
2023-05-08T18:47:26.966Z,19.30
2023-05-08T18:49:53.760Z,19.30
2023-05-08T18:52:20.401Z,19.20
2023-05-08T18:54:46.973Z,19.20
2023-05-08T18:57:13.593Z,19.10
2023-05-08T18:59:40.435Z,19.10
2023-05-08T19:02:07.135Z,19.00
2023-05-08T19:04:33.794Z,19.00
2023-05-08T19:07:00.821Z,18.90
2023-05-08T19:09:28.660Z,18.80
2023-05-08T19:11:55.272Z,18.80
2023-05-08T19:14:21.853Z,18.70
2023-05-08T19:16:48.448Z,18.60
2023-05-08T19:19:15.177Z,18.60
2023-05-08T19:21:41.793Z,18.60
2023-05-08T19:24:08.625Z,18.40
2023-05-08T19:26:35.461Z,18.40
2023-05-08T19:29:02.126Z,18.30
2023-05-08T19:31:28.799Z,18.30
2023-05-08T19:33:57.138Z,18.20
2023-05-08T19:36:23.797Z,18.10
2023-05-08T19:38:50.414Z,18.00
2023-05-08T19:41:17.845Z,17.90
2023-05-08T19:43:44.556Z,17.90
2023-05-08T19:46:11.227Z,17.80
2023-05-08T19:48:37.957Z,17.70
2023-05-08T19:51:08.835Z,17.60
2023-05-08T19:53:35.802Z,17.50
2023-05-08T19:56:02.589Z,17.60
2023-05-08T19:58:29.232Z,17.50
2023-05-08T20:00:55.860Z,17.40
2023-05-08T20:03:22.617Z,17.40
2023-05-08T20:05:51.604Z,17.40
2023-05-08T20:08:18.727Z,17.30
2023-05-08T20:10:48.814Z,17.20
2023-05-08T20:13:16.868Z,17.20
2023-05-08T20:15:43.528Z,17.20
2023-05-08T20:18:10.492Z,17.10
2023-05-08T20:20:37.153Z,17.10
2023-05-08T20:23:04.336Z,17.00
2023-05-08T20:25:31.168Z,17.00
2023-05-08T20:27:57.862Z,16.90
2023-05-08T20:30:24.554Z,16.90
2023-05-08T20:32:51.209Z,16.90
2023-05-08T20:35:17.829Z,16.90
2023-05-08T20:37:45.749Z,16.90
2023-05-08T20:40:12.754Z,16.90
2023-05-08T20:42:41.105Z,16.90
2023-05-08T20:45:09.015Z,16.90
2023-05-08T20:47:36.237Z,16.90
2023-05-08T20:50:03.624Z,16.90
2023-05-08T20:52:32.163Z,16.90
2023-05-08T20:54:59.553Z,16.90
2023-05-08T20:57:26.344Z,16.90
2023-05-08T20:59:52.972Z,16.90
2023-05-08T21:02:19.625Z,16.90
2023-05-08T21:04:46.389Z,16.90
2023-05-08T21:07:13.118Z,16.90
2023-05-08T21:09:39.788Z,16.90
2023-05-08T21:12:06.746Z,16.90
2023-05-08T21:14:34.847Z,16.80
2023-05-08T21:17:01.573Z,16.80
2023-05-08T21:19:28.225Z,16.80
2023-05-08T21:21:54.771Z,16.70
2023-05-08T21:24:21.586Z,16.70
2023-05-08T21:26:48.180Z,16.70
2023-05-08T21:29:14.835Z,16.70
2023-05-08T21:31:41.991Z,16.60
2023-05-08T21:34:08.838Z,16.60
2023-05-08T21:36:35.658Z,16.60
2023-05-08T21:39:04.036Z,16.60
2023-05-08T21:41:30.784Z,16.60
2023-05-08T21:43:57.352Z,16.50
2023-05-08T21:46:24.026Z,16.50
2023-05-08T21:48:50.825Z,16.40
2023-05-08T21:51:17.450Z,16.40
2023-05-08T21:53:43.999Z,16.30
2023-05-08T21:56:10.636Z,16.30
2023-05-08T21:58:37.332Z,16.30
2023-05-08T22:01:04.049Z,16.20
2023-05-08T22:03:31.468Z,16.20
2023-05-08T22:05:58.182Z,16.20
2023-05-08T22:08:24.772Z,16.20
2023-05-08T22:10:51.378Z,16.20
2023-05-08T22:13:17.991Z,16.20
2023-05-08T22:15:44.719Z,16.10
2023-05-08T22:18:11.383Z,16.10
2023-05-08T22:20:38.037Z,16.00
2023-05-08T22:23:04.664Z,16.00
2023-05-08T22:25:31.418Z,16.00
2023-05-08T22:27:58.318Z,15.90
2023-05-08T22:30:24.908Z,15.90
2023-05-08T22:32:57.145Z,15.90
2023-05-08T22:35:25.919Z,15.90
2023-05-08T22:37:53.384Z,15.90
2023-05-08T22:40:20.865Z,15.80
2023-05-08T22:42:48.183Z,15.90
2023-05-08T22:45:15.191Z,15.80
2023-05-08T22:47:42.160Z,15.80
2023-05-08T22:50:09.339Z,15.80
2023-05-08T22:52:36.604Z,15.80
2023-05-08T22:55:04.459Z,15.70
2023-05-08T22:57:31.231Z,15.70
2023-05-08T22:59:57.831Z,15.70
2023-05-08T23:02:24.435Z,15.70
2023-05-08T23:04:51.499Z,15.70
2023-05-08T23:07:18.281Z,15.70
2023-05-08T23:09:44.897Z,15.70
2023-05-08T23:12:11.492Z,15.60
2023-05-08T23:14:38.108Z,15.60
2023-05-08T23:17:04.769Z,15.60
2023-05-08T23:19:31.505Z,15.50
2023-05-08T23:21:58.139Z,15.50
2023-05-08T23:24:24.812Z,15.50
2023-05-08T23:26:52.509Z,15.50
2023-05-08T23:29:19.058Z,15.50
2023-05-08T23:31:46.037Z,15.50
2023-05-08T23:34:12.770Z,15.50
2023-05-08T23:36:39.431Z,15.50
2023-05-08T23:39:07.084Z,15.50
2023-05-08T23:41:34.123Z,15.50
2023-05-08T23:44:00.760Z,15.50
2023-05-08T23:46:27.346Z,15.50
2023-05-08T23:48:54.008Z,15.50
2023-05-08T23:51:21.489Z,15.40
2023-05-08T23:53:48.926Z,15.50
2023-05-08T23:56:15.725Z,15.40
2023-05-08T23:58:42.528Z,15.40
